sim
Sign-in with your pilot id or email,
or register
Callsign
Passwort

Schedule Details

Flight Number: DLH1633
Departure: Wroclaw Copernicus Airport (EPWR) at 16:15
Arrival: Munich Airport (EDDM) at 17:20
Route: Lufthansa Passenger Schedule. Enter filed route here before submitting Pirep.

Weather Information
Getting current METAR information for EPWR 181400Z 30004KT 260V340 CAVOK 18/03 Q1029
Getting current METAR information for EDDM 181350Z 09011KT 050V120 CAVOK 19/10 Q1024 NOSIG

Schedule Frequency

Route Map